Terminal Aerodrome Forecast
Issued by NWS Blacksburg, VA

Home | Current Version | Previous Version | Text Only | Print | Product List | Glossary On
Versions: 1 2 3 4 5 6 7 8 9 10 11 12 13 14 15 16 17 18 19 20 21 22 23 24 25 26 27 28 29 30 31 32 33 34 35
000
FTUS41 KRNK 271140
TAFROA
TAF
KROA 271140Z 2712/2812 17004KT P6SM SCT250
     FM271500 18010G18KT P6SM SCT040 BKN250
     FM272100 19012KT P6SM -SHRA BKN045
     FM280300 27004KT P6SM SCT060 BKN150
     FM280900 VRB03KT 6SM BR SCT250=

USA.gov is the U.S. government's official web portal to all federal, state and local government web resources and services.